Time;durP1;ratioP1;P1;durP2;ratioP2;P2;SDS_P1;SDS_P2;PMS_P1;PMS_P2;Temp;Humidity;BMP_temperature;BMP_pressure;BME280_temperature;BME280_humidity;BME280_pressure;Samples;Min_cycle;Max_cycle;Signal;HPM_P1;HPM_P2
2021/08/23 00:01:40;;;;;;;13.97;12.33;;;17.20;99.90;;;;;;4973724;28;20972;-69
2021/08/23 00:04:11;;;;;;;14.70;13.17;;;17.30;99.90;;;;;;4973768;28;20407;-70
2021/08/23 00:06:39;;;;;;;14.77;13.17;;;17.20;99.90;;;;;;4973645;28;20423;-71
2021/08/23 00:09:08;;;;;;;17.47;15.67;;;17.10;99.90;;;;;;4973119;28;20800;-69
2021/08/23 00:11:36;;;;;;;15.53;13.90;;;17.10;99.90;;;;;;4972191;28;20466;-69
2021/08/23 00:14:04;;;;;;;14.90;12.70;;;17.10;99.90;;;;;;4973464;28;20635;-69
2021/08/23 00:16:33;;;;;;;15.90;13.60;;;17.10;99.90;;;;;;4972935;28;20791;-68
2021/08/23 00:19:01;;;;;;;17.60;14.80;;;17.10;99.90;;;;;;4972848;28;20398;-69
2021/08/23 00:21:40;;;;;;;21.17;15.70;;;17.10;99.90;;;;;;4971859;28;20437;-69
2021/08/23 00:24:21;;;;;;;17.47;14.70;;;17.10;99.90;;;;;;4973132;28;20454;-70
2021/08/23 00:26:50;;;;;;;17.13;14.77;;;17.00;99.90;;;;;;4972741;28;20427;-68
2021/08/23 00:29:18;;;;;;;16.70;14.33;;;17.00;99.90;;;;;;4972617;28;20429;-69
2021/08/23 00:31:47;;;;;;;16.90;15.10;;;17.00;99.90;;;;;;4973310;28;20943;-70
2021/08/23 00:34:16;;;;;;;17.80;14.17;;;17.10;99.90;;;;;;4972417;28;20439;-70
2021/08/23 00:36:46;;;;;;;15.07;13.53;;;17.10;99.90;;;;;;4972579;28;20511;-69
2021/08/23 00:39:14;;;;;;;17.50;14.50;;;17.00;99.90;;;;;;4972673;28;20894;-68
2021/08/23 00:41:44;;;;;;;17.70;13.50;;;17.00;99.90;;;;;;4972799;28;20457;-70
2021/08/23 00:44:12;;;;;;;16.13;14.43;;;17.00;99.90;;;;;;4972459;28;20434;-70
2021/08/23 00:46:42;;;;;;;16.67;14.97;;;17.10;99.90;;;;;;4972768;28;20405;-69
2021/08/23 00:49:10;;;;;;;19.40;15.83;;;17.10;99.90;;;;;;4972515;28;20785;-70
2021/08/23 00:51:38;;;;;;;15.53;13.87;;;17.00;99.90;;;;;;4972593;28;21028;-69
2021/08/23 00:54:08;;;;;;;16.13;14.70;;;17.00;99.90;;;;;;4972830;28;20407;-69
2021/08/23 00:56:37;;;;;;;17.10;15.30;;;17.10;99.90;;;;;;4972475;28;20401;-71
2021/08/23 00:59:08;;;;;;;15.40;13.80;;;17.10;99.90;;;;;;4970839;28;20424;-71
2021/08/23 01:01:47;;;;;;;15.60;14.00;;;17.10;99.90;;;;;;4972824;28;20837;-69
2021/08/23 01:04:21;;;;;;;16.40;13.53;;;17.10;99.90;;;;;;4972396;28;20912;-69
2021/08/23 01:06:49;;;;;;;17.37;14.90;;;17.10;99.90;;;;;;4971515;28;20397;-69
2021/08/23 01:09:20;;;;;;;16.17;14.50;;;17.10;99.90;;;;;;4971343;28;20497;-70
2021/08/23 01:11:53;;;;;;;13.80;12.47;;;16.90;99.90;;;;;;4971909;28;20444;-70
2021/08/23 01:14:21;;;;;;;18.10;15.87;;;16.90;99.90;;;;;;4987597;28;20429;-69
2021/08/23 01:16:49;;;;;;;17.27;14.77;;;16.90;99.90;;;;;;4972655;28;21033;-69
2021/08/23 01:19:22;;;;;;;15.73;13.70;;;16.80;99.90;;;;;;4970039;28;20496;-70
2021/08/23 01:21:53;;;;;;;14.73;13.17;;;16.80;99.90;;;;;;4971747;28;20505;-70
2021/08/23 01:24:24;;;;;;;13.57;12.30;;;16.80;99.90;;;;;;4971946;28;20409;-70
2021/08/23 01:26:54;;;;;;;14.20;12.70;;;16.80;99.90;;;;;;4970437;28;20401;-68
2021/08/23 01:29:27;;;;;;;15.03;12.83;;;16.80;99.90;;;;;;4971461;28;20410;-70
2021/08/23 01:32:12;;;;;;;15.13;13.63;;;16.80;99.90;;;;;;4972101;28;20961;-70
2021/08/23 01:34:41;;;;;;;15.40;13.90;;;16.80;99.90;;;;;;4971381;28;20405;-69
2021/08/23 01:37:15;;;;;;;16.20;13.73;;;16.80;99.90;;;;;;4971191;28;20410;-69
2021/08/23 01:39:45;;;;;;;18.23;12.40;;;16.90;99.90;;;;;;4971229;28;20514;-69
2021/08/23 01:42:13;;;;;;;17.30;15.07;;;16.80;99.90;;;;;;4969953;28;20459;-70
2021/08/23 01:44:42;;;;;;;19.30;15.50;;;16.80;99.90;;;;;;4971407;28;20409;-70
2021/08/23 01:47:12;;;;;;;16.50;14.70;;;16.80;99.90;;;;;;4971073;28;20401;-69
2021/08/23 01:49:40;;;;;;;17.47;13.90;;;16.80;99.90;;;;;;4971316;28;20423;-69
2021/08/23 01:52:09;;;;;;;16.47;14.80;;;16.80;99.90;;;;;;4971481;28;20443;-68
2021/08/23 01:54:38;;;;;;;16.60;15.00;;;16.80;99.90;;;;;;4971451;28;20935;-69
2021/08/23 01:57:06;;;;;;;17.17;14.23;;;16.80;99.90;;;;;;4970998;28;20410;-70
2021/08/23 01:59:34;;;;;;;17.47;15.60;;;16.80;99.90;;;;;;4971110;28;20482;-70
2021/08/23 02:02:02;;;;;;;18.27;16.37;;;16.80;99.90;;;;;;4971292;28;20786;-71
2021/08/23 02:04:33;;;;;;;16.83;15.00;;;16.80;99.90;;;;;;4971429;28;20796;-68
2021/08/23 02:07:01;;;;;;;17.20;15.33;;;16.70;99.90;;;;;;4970928;28;20785;-70
2021/08/23 02:09:29;;;;;;;17.50;15.77;;;16.70;99.90;;;;;;4971217;28;20820;-69
2021/08/23 02:11:57;;;;;;;20.10;15.90;;;16.60;99.90;;;;;;4970951;28;20462;-70
2021/08/23 02:14:25;;;;;;;20.20;15.40;;;16.60;99.90;;;;;;4970063;28;20423;-68
2021/08/23 02:16:54;;;;;;;18.27;16.10;;;16.60;99.90;;;;;;4970888;28;20418;-68
2021/08/23 02:19:23;;;;;;;16.07;14.37;;;16.60;99.90;;;;;;4971257;28;20528;-70
2021/08/23 02:21:54;;;;;;;14.60;13.03;;;16.60;99.90;;;;;;4970982;28;20417;-70
2021/08/23 02:24:23;;;;;;;15.37;13.43;;;16.50;99.90;;;;;;4971480;28;20409;-69
2021/08/23 02:26:52;;;;;;;12.93;11.57;;;16.50;99.90;;;;;;4970659;28;20513;-69
2021/08/23 02:29:20;;;;;;;15.20;10.10;;;16.40;99.90;;;;;;4971467;28;20431;-68
2021/08/23 02:31:48;;;;;;;10.93;9.23;;;16.40;99.90;;;;;;4971422;28;20450;-69
2021/08/23 02:34:17;;;;;;;12.27;10.90;;;16.40;99.90;;;;;;4974822;28;20431;-68
2021/08/23 02:36:45;;;;;;;10.87;9.73;;;16.40;99.90;;;;;;4974601;28;20409;-70
2021/08/23 02:39:14;;;;;;;11.03;9.63;;;16.40;99.90;;;;;;4974898;28;20463;-70
2021/08/23 02:41:42;;;;;;;9.63;8.63;;;16.30;99.90;;;;;;4974556;28;20450;-69
2021/08/23 02:44:10;;;;;;;9.00;7.83;;;16.40;99.90;;;;;;4975130;28;20409;-69
2021/08/23 02:46:39;;;;;;;8.30;7.50;;;16.30;99.90;;;;;;4974019;28;20428;-67
2021/08/23 02:49:07;;;;;;;7.80;7.00;;;16.30;99.90;;;;;;4974550;28;20435;-70
2021/08/23 02:51:35;;;;;;;6.20;5.60;;;16.30;99.90;;;;;;4974737;28;20492;-69
2021/08/23 02:54:03;;;;;;;6.40;5.57;;;16.20;99.90;;;;;;4975127;28;20431;-69
2021/08/23 02:56:33;;;;;;;5.90;5.30;;;16.20;99.90;;;;;;4974474;28;20423;-69
2021/08/23 02:59:01;;;;;;;5.87;5.33;;;16.20;99.90;;;;;;4974426;28;20465;-69
2021/08/23 03:01:29;;;;;;;6.20;5.60;;;16.10;99.90;;;;;;4974200;28;21207;-70
2021/08/23 03:03:57;;;;;;;5.97;4.97;;;16.10;99.90;;;;;;4974600;28;20820;-69
2021/08/23 03:06:26;;;;;;;4.60;4.20;;;16.10;99.90;;;;;;4974255;28;20799;-71
2021/08/23 03:08:54;;;;;;;5.93;5.43;;;16.10;99.90;;;;;;4974511;28;20402;-69
2021/08/23 03:11:24;;;;;;;5.37;4.87;;;16.10;99.90;;;;;;4972854;28;20446;-69
2021/08/23 03:13:53;;;;;;;6.87;5.77;;;16.00;99.90;;;;;;4974102;28;20393;-69
2021/08/23 03:16:21;;;;;;;6.53;6.00;;;16.00;99.90;;;;;;4974159;28;20393;-68
2021/08/23 03:18:50;;;;;;;7.73;7.03;;;16.00;99.90;;;;;;4974050;28;20464;-69
2021/08/23 03:21:18;;;;;;;8.50;7.37;;;15.90;99.90;;;;;;4974446;28;20421;-69
2021/08/23 03:23:46;;;;;;;9.00;8.10;;;15.90;99.90;;;;;;4974450;28;20439;-69
2021/08/23 03:26:14;;;;;;;9.33;8.47;;;15.80;99.90;;;;;;4972480;28;20546;-68
2021/08/23 03:28:42;;;;;;;10.53;9.47;;;15.80;99.90;;;;;;4974163;28;20446;-69
2021/08/23 03:31:12;;;;;;;10.40;9.27;;;15.70;99.90;;;;;;4973877;28;20449;-69
2021/08/23 03:33:40;;;;;;;12.33;11.03;;;15.70;99.90;;;;;;4974181;28;20412;-70
2021/08/23 03:36:09;;;;;;;12.33;11.20;;;15.60;99.90;;;;;;4973777;28;20422;-69
2021/08/23 03:38:37;;;;;;;11.77;10.70;;;15.60;99.90;;;;;;4974049;28;20433;-69
2021/08/23 03:41:06;;;;;;;12.93;10.93;;;15.60;99.90;;;;;;4973978;28;21015;-69
2021/08/23 03:43:34;;;;;;;16.50;11.30;;;15.60;99.90;;;;;;4973799;28;20427;-69
2021/08/23 03:46:02;;;;;;;12.13;11.00;;;15.60;99.90;;;;;;4973829;28;20887;-70
2021/08/23 03:48:32;;;;;;;13.60;12.30;;;15.60;99.90;;;;;;4973929;28;20464;-70
2021/08/23 03:51:00;;;;;;;13.80;12.33;;;15.60;99.90;;;;;;4974031;28;20398;-70
2021/08/23 03:53:28;;;;;;;13.80;12.33;;;15.50;99.90;;;;;;4973551;28;20800;-69
2021/08/23 03:55:56;;;;;;;13.13;11.90;;;15.50;99.90;;;;;;4973752;28;20437;-69
2021/08/23 03:58:25;;;;;;;12.70;11.50;;;15.50;99.90;;;;;;4973719;28;20431;-69
2021/08/23 04:00:53;;;;;;;13.30;12.00;;;15.40;99.90;;;;;;4973613;28;20436;-69
2021/08/23 04:03:21;;;;;;;13.50;12.20;;;15.40;99.90;;;;;;4973674;28;20462;-69
2021/08/23 04:05:51;;;;;;;12.70;11.53;;;15.40;99.90;;;;;;4973472;28;20941;-69
2021/08/23 04:08:19;;;;;;;10.20;9.10;;;15.40;99.90;;;;;;4973394;28;20427;-70
2021/08/23 04:10:48;;;;;;;10.77;9.77;;;15.30;99.90;;;;;;4972206;28;20420;-70
2021/08/23 04:13:16;;;;;;;9.87;8.97;;;15.30;99.90;;;;;;4973159;28;20815;-70
2021/08/23 04:15:46;;;;;;;10.40;9.40;;;15.20;99.90;;;;;;4971958;28;20438;-70
2021/08/23 04:18:15;;;;;;;10.00;9.00;;;15.10;99.90;;;;;;4973196;28;20438;-68
2021/08/23 04:20:43;;;;;;;10.83;8.17;;;15.10;99.90;;;;;;4972931;28;20467;-70
2021/08/23 04:23:13;;;;;;;8.10;6.70;;;15.10;99.90;;;;;;4973217;28;20458;-70
2021/08/23 04:25:42;;;;;;;9.13;6.70;;;15.00;99.90;;;;;;4972845;28;20446;-69
2021/08/23 04:28:10;;;;;;;9.63;6.77;;;14.90;99.90;;;;;;4972970;28;20478;-68
2021/08/23 04:30:38;;;;;;;8.30;6.80;;;14.90;99.90;;;;;;4972921;28;20494;-69
2021/08/23 04:33:07;;;;;;;7.93;6.70;;;14.80;99.90;;;;;;4972618;28;21040;-69
2021/08/23 04:35:35;;;;;;;9.20;5.90;;;14.70;99.90;;;;;;4972891;28;20684;-70
2021/08/23 04:38:03;;;;;;;8.00;6.33;;;14.70;99.90;;;;;;4971510;28;20435;-70
2021/08/23 04:40:33;;;;;;;6.90;5.97;;;14.70;99.90;;;;;;4972874;28;20498;-67
2021/08/23 04:43:01;;;;;;;6.63;5.93;;;14.70;99.90;;;;;;4972476;28;20457;-70
2021/08/23 04:45:29;;;;;;;6.53;5.90;;;14.70;99.90;;;;;;4972455;28;20430;-69
2021/08/23 04:47:58;;;;;;;7.13;6.23;;;14.70;99.90;;;;;;4971225;28;20431;-68
2021/08/23 04:50:26;;;;;;;9.30;5.57;;;14.70;99.90;;;;;;4972686;28;20431;-69
2021/08/23 04:52:54;;;;;;;6.80;5.50;;;14.60;99.90;;;;;;4972527;28;20442;-68
2021/08/23 04:55:22;;;;;;;5.63;5.03;;;14.60;99.90;;;;;;4971769;28;20435;-68
2021/08/23 04:57:54;;;;;;;6.40;5.80;;;14.60;99.90;;;;;;4970873;28;20489;-70
2021/08/23 05:00:23;;;;;;;6.73;4.93;;;14.60;99.90;;;;;;4972318;28;20520;-69
2021/08/23 05:02:51;;;;;;;5.20;4.70;;;14.50;99.90;;;;;;4971344;28;20852;-69
2021/08/23 05:05:19;;;;;;;6.77;4.30;;;14.50;99.90;;;;;;4973211;28;20435;-70
2021/08/23 05:07:47;;;;;;;7.17;6.03;;;14.50;99.90;;;;;;4971116;28;20462;-69
2021/08/23 05:10:16;;;;;;;6.30;4.73;;;14.50;99.90;;;;;;4971090;28;20516;-70
2021/08/23 05:12:44;;;;;;;4.50;4.07;;;14.50;99.90;;;;;;4970350;28;20470;-70
2021/08/23 05:15:14;;;;;;;4.77;4.30;;;14.50;99.90;;;;;;4971082;28;20455;-69
2021/08/23 05:17:42;;;;;;;4.70;4.27;;;14.60;99.90;;;;;;4971144;28;20453;-70
2021/08/23 05:20:12;;;;;;;8.93;4.70;;;14.50;99.90;;;;;;4973354;28;20893;-68
2021/08/23 05:22:40;;;;;;;8.67;4.57;;;14.50;99.90;;;;;;4971354;28;20822;-67
2021/08/23 05:25:09;;;;;;;6.30;4.60;;;14.60;99.90;;;;;;4971739;28;20490;-67
2021/08/23 05:27:37;;;;;;;6.33;5.10;;;14.60;99.90;;;;;;4970177;28;20513;-68
2021/08/23 05:30:07;;;;;;;6.60;5.20;;;14.60;99.90;;;;;;4971893;28;20530;-68
2021/08/23 05:32:36;;;;;;;8.47;5.07;;;14.70;99.90;;;;;;4970129;28;20562;-68
2021/08/23 05:35:06;;;;;;;5.87;4.53;;;14.70;99.90;;;;;;4970550;28;20453;-68
2021/08/23 05:37:34;;;;;;;6.90;4.80;;;14.70;99.90;;;;;;4969949;28;20531;-68
2021/08/23 05:40:02;;;;;;;5.33;4.87;;;14.70;99.90;;;;;;4970181;28;21001;-67
2021/08/23 05:42:31;;;;;;;4.70;4.13;;;14.70;99.90;;;;;;4971621;28;20543;-68
2021/08/23 05:44:59;;;;;;;6.00;4.57;;;14.70;99.90;;;;;;4970353;28;20447;-67
2021/08/23 05:47:27;;;;;;;6.73;4.70;;;14.80;99.90;;;;;;4969963;28;20443;-67
2021/08/23 05:49:58;;;;;;;5.17;4.70;;;14.80;99.90;;;;;;4970173;28;20442;-68
2021/08/23 05:52:26;;;;;;;5.77;4.93;;;14.80;99.90;;;;;;4970454;28;20528;-67
2021/08/23 05:54:54;;;;;;;5.20;4.30;;;14.80;99.90;;;;;;4971598;28;20689;-68
2021/08/23 05:57:24;;;;;;;4.43;4.03;;;14.80;99.90;;;;;;4971352;28;20462;-68
2021/08/23 05:59:52;;;;;;;8.83;5.40;;;14.80;99.90;;;;;;4969668;28;20452;-67
2021/08/23 06:02:21;;;;;;;4.53;4.07;;;14.80;99.90;;;;;;4969606;28;20466;-68
2021/08/23 06:04:49;;;;;;;6.30;4.57;;;14.90;99.90;;;;;;4969856;28;20445;-68
2021/08/23 06:07:19;;;;;;;5.33;4.83;;;14.90;99.90;;;;;;4974271;28;20427;-67
2021/08/23 06:09:47;;;;;;;11.83;4.10;;;14.90;99.90;;;;;;4975189;28;20493;-67
2021/08/23 06:12:15;;;;;;;3.60;3.30;;;15.00;99.90;;;;;;4974134;28;20573;-68
2021/08/23 06:14:44;;;;;;;5.30;4.87;;;15.10;99.90;;;;;;4975037;28;20430;-65
2021/08/23 06:17:12;;;;;;;6.60;4.70;;;15.10;99.90;;;;;;4973542;28;20447;-67
2021/08/23 06:19:41;;;;;;;5.97;5.37;;;15.10;99.90;;;;;;4973950;28;20449;-67
2021/08/23 06:22:09;;;;;;;5.20;3.57;;;15.10;99.90;;;;;;4975308;28;20450;-67
2021/08/23 06:24:39;;;;;;;6.13;4.43;;;15.10;99.90;;;;;;4973978;28;20997;-67
2021/08/23 06:27:07;;;;;;;4.83;4.33;;;15.10;99.90;;;;;;4975256;28;20517;-68
2021/08/23 06:29:35;;;;;;;4.80;4.03;;;15.10;99.90;;;;;;4975284;28;20434;-68
2021/08/23 06:32:04;;;;;;;4.00;3.60;;;15.20;99.90;;;;;;4973956;28;20553;-67
2021/08/23 06:34:33;;;;;;;4.50;4.10;;;15.30;99.90;;;;;;4974825;28;20988;-68
2021/08/23 06:37:01;;;;;;;4.60;3.83;;;15.40;99.90;;;;;;4975069;28;20972;-68
2021/08/23 06:39:29;;;;;;;4.33;3.93;;;15.50;99.90;;;;;;4974821;28;20802;-67
2021/08/23 06:42:02;;;;;;;5.20;4.40;;;15.50;99.90;;;;;;4974538;28;20482;-68
2021/08/23 06:44:30;;;;;;;5.07;3.60;;;15.60;99.90;;;;;;4973200;28;20512;-67
2021/08/23 06:46:58;;;;;;;4.50;4.10;;;15.60;99.90;;;;;;4974782;28;20873;-67
2021/08/23 06:49:27;;;;;;;7.23;6.70;;;15.60;99.90;;;;;;4974914;28;20984;-67
2021/08/23 06:51:55;;;;;;;3.63;3.33;;;15.60;99.90;;;;;;4973478;28;20465;-67
2021/08/23 06:54:23;;;;;;;5.00;3.53;;;15.60;99.90;;;;;;4975741;28;20423;-67
2021/08/23 06:56:52;;;;;;;4.80;3.53;;;15.70;99.90;;;;;;4973826;28;20446;-70
2021/08/23 06:59:21;;;;;;;3.87;2.93;;;15.70;99.90;;;;;;4975279;28;20515;-68
2021/08/23 07:01:50;;;;;;;4.33;3.93;;;15.70;99.90;;;;;;4973823;28;20540;-68
2021/08/23 07:04:18;;;;;;;3.70;3.07;;;15.80;99.90;;;;;;4973808;28;20430;-68
2021/08/23 07:06:47;;;;;;;4.40;2.97;;;15.90;99.90;;;;;;4973317;28;20455;-68
2021/08/23 07:09:16;;;;;;;3.27;2.97;;;16.10;99.90;;;;;;4973335;28;20418;-67
2021/08/23 07:11:44;;;;;;;4.30;3.57;;;16.00;99.90;;;;;;4973473;28;21021;-68
2021/08/23 07:14:12;;;;;;;3.40;3.07;;;16.00;99.90;;;;;;4974857;28;20500;-68
2021/08/23 07:16:42;;;;;;;3.87;2.90;;;15.90;99.90;;;;;;4973658;28;20443;-68
2021/08/23 07:19:10;;;;;;;10.50;3.77;;;15.80;99.90;;;;;;4972466;28;20806;-69
2021/08/23 07:21:39;;;;;;;3.70;3.30;;;15.90;99.90;;;;;;4974248;28;20541;-69
2021/08/23 07:24:09;;;;;;;5.40;3.57;;;15.90;99.90;;;;;;4972431;28;20537;-69
2021/08/23 07:26:38;;;;;;;2.97;2.53;;;15.90;99.90;;;;;;4973343;28;20458;-68
2021/08/23 07:29:06;;;;;;;3.93;2.83;;;16.00;99.90;;;;;;4973043;28;20431;-68
2021/08/23 07:31:35;;;;;;;3.43;3.10;;;16.10;99.90;;;;;;4971307;28;20453;-66
2021/08/23 07:34:05;;;;;;;4.10;3.70;;;16.10;99.90;;;;;;4971668;28;20436;-68
2021/08/23 07:36:34;;;;;;;3.00;2.70;;;16.10;99.90;;;;;;4974794;28;20800;-68
2021/08/23 07:39:03;;;;;;;3.30;2.93;;;16.00;99.90;;;;;;4972658;28;20512;-68
2021/08/23 07:41:32;;;;;;;4.17;2.80;;;16.00;99.90;;;;;;4971749;28;20457;-67
2021/08/23 07:44:00;;;;;;;3.60;3.30;;;16.00;99.90;;;;;;4972810;28;20413;-68
2021/08/23 07:46:28;;;;;;;3.67;3.20;;;15.90;99.90;;;;;;4973077;28;20449;-69
2021/08/23 07:48:57;;;;;;;4.73;2.97;;;16.00;99.90;;;;;;4973961;28;20427;-67
2021/08/23 07:51:27;;;;;;;3.37;2.50;;;15.90;99.90;;;;;;4974156;28;20453;-68
2021/08/23 07:53:56;;;;;;;3.40;2.90;;;15.80;99.90;;;;;;4974415;28;20441;-68
2021/08/23 07:56:24;;;;;;;3.70;3.20;;;15.70;99.90;;;;;;4973758;28;20402;-67
2021/08/23 07:58:53;;;;;;;4.80;3.17;;;15.80;99.90;;;;;;4973901;28;20818;-68
2021/08/23 08:01:27;;;;;;;4.33;2.80;;;15.70;99.90;;;;;;4972267;28;20517;-68
2021/08/23 08:03:56;;;;;;;4.47;3.13;;;15.60;99.90;;;;;;4973596;28;20431;-68
2021/08/23 08:06:28;;;;;;;3.67;1.90;;;15.60;99.90;;;;;;4972589;28;20845;-68
2021/08/23 08:08:56;;;;;;;3.60;2.10;;;15.60;99.90;;;;;;4972822;28;20584;-71
2021/08/23 08:11:25;;;;;;;6.13;3.00;;;15.50;99.90;;;;;;4975351;28;20878;-68
2021/08/23 08:13:53;;;;;;;3.50;2.33;;;15.60;99.90;;;;;;4972246;28;20435;-67
2021/08/23 08:16:21;;;;;;;2.73;2.17;;;15.60;99.90;;;;;;4972050;28;20505;-67
2021/08/23 08:18:52;;;;;;;5.77;2.50;;;15.70;99.90;;;;;;4973600;28;20519;-70
2021/08/23 08:21:23;;;;;;;3.50;2.67;;;15.80;99.90;;;;;;4973366;28;20496;-67
2021/08/23 08:23:54;;;;;;;3.53;2.23;;;15.70;99.90;;;;;;4973765;28;20490;-67
2021/08/23 08:26:22;;;;;;;3.30;2.53;;;15.70;99.90;;;;;;4971797;28;20414;-69
2021/08/23 08:28:53;;;;;;;6.03;2.03;;;15.90;99.90;;;;;;4971809;28;20406;-68
2021/08/23 08:31:22;;;;;;;3.33;2.20;;;16.00;99.90;;;;;;4971489;28;20502;-67
2021/08/23 08:33:51;;;;;;;3.90;3.07;;;16.10;99.90;;;;;;4972072;28;20443;-68
2021/08/23 08:36:21;;;;;;;2.17;1.97;;;16.10;99.90;;;;;;4971949;28;20541;-67
2021/08/23 08:38:49;;;;;;;6.43;2.73;;;16.10;99.90;;;;;;4972470;28;20966;-68
2021/08/23 08:41:19;;;;;;;2.10;1.57;;;16.20;99.90;;;;;;4971918;28;20465;-68
2021/08/23 08:43:48;;;;;;;2.10;1.73;;;16.40;99.90;;;;;;4972186;28;20533;-66
2021/08/23 08:46:16;;;;;;;2.53;1.80;;;16.50;99.90;;;;;;4973374;28;20423;-67
2021/08/23 08:48:45;;;;;;;7.20;2.17;;;16.70;99.90;;;;;;4972022;28;20446;-67
2021/08/23 08:51:15;;;;;;;2.50;1.83;;;16.80;99.90;;;;;;4971596;28;21032;-67
2021/08/23 08:53:43;;;;;;;2.47;1.83;;;16.80;1.00;;;;;;4971924;28;20421;-66
2021/08/23 08:56:12;;;;;;;2.77;1.73;;;16.70;1.00;;;;;;4972006;28;20533;-67
2021/08/23 08:58:42;;;;;;;2.13;1.93;;;16.60;1.00;;;;;;4971642;28;20501;-68
2021/08/23 09:01:12;;;;;;;3.20;1.40;;;16.60;1.00;;;;;;4972934;28;20443;-66
2021/08/23 09:03:46;;;;;;;2.90;1.93;;;16.60;1.00;;;;;;4971836;28;20450;-67
2021/08/23 09:06:14;;;;;;;3.30;1.90;;;16.70;1.00;;;;;;4972843;28;21009;-67
2021/08/23 09:08:46;;;;;;;3.60;2.70;;;16.80;1.00;;;;;;4971709;28;20546;-67
2021/08/23 09:11:16;;;;;;;4.77;2.07;;;16.90;1.00;;;;;;4973559;28;20421;-68
2021/08/23 09:14:00;;;;;;;2.30;1.73;;;16.90;1.00;;;;;;4972100;28;20832;-67
2021/08/23 09:16:30;;;;;;;3.40;2.40;;;17.00;1.00;;;;;;4971791;28;20795;-67
2021/08/23 09:18:59;;;;;;;3.53;2.50;;;17.10;1.00;;;;;;4971634;28;20457;-66
2021/08/23 09:21:32;;;;;;;2.70;2.13;;;17.10;1.00;;;;;;4971565;28;20437;-67
2021/08/23 09:24:00;;;;;;;2.47;2.10;;;17.30;99.90;;;;;;4971703;28;20450;-67
2021/08/23 09:26:32;;;;;;;2.20;2.00;;;17.40;99.90;;;;;;4972349;28;20523;-67
2021/08/23 09:29:05;;;;;;;2.43;2.10;;;17.50;99.90;;;;;;4972457;28;20511;-67
2021/08/23 09:31:35;;;;;;;2.43;1.73;;;17.50;99.90;;;;;;4972435;28;20421;-66
2021/08/23 09:34:06;;;;;;;3.10;1.87;;;17.60;99.90;;;;;;4971510;28;20525;-67
2021/08/23 09:36:35;;;;;;;2.20;1.73;;;17.60;99.90;;;;;;4971396;28;20486;-67
2021/08/23 09:39:06;;;;;;;3.07;2.40;;;17.80;99.90;;;;;;4972603;28;20415;-68
2021/08/23 09:41:40;;;;;;;2.67;1.97;;;17.90;99.90;;;;;;4972303;28;20451;-67
2021/08/23 09:44:11;;;;;;;3.27;2.27;;;18.10;99.90;;;;;;4971466;28;20416;-68
2021/08/23 09:46:41;;;;;;;3.10;2.30;;;18.40;99.90;;;;;;4971548;28;20781;-68
2021/08/23 09:49:14;;;;;;;7.50;2.13;;;18.60;99.90;;;;;;4972610;28;20423;-67
2021/08/23 09:51:47;;;;;;;4.03;2.40;;;18.90;99.90;;;;;;4971418;28;20471;-67
2021/08/23 09:54:18;;;;;;;4.13;2.77;;;19.00;99.90;;;;;;4973257;28;20508;-68
2021/08/23 09:56:48;;;;;;;2.50;2.20;;;19.00;99.90;;;;;;4972622;28;20412;-68
2021/08/23 09:59:19;;;;;;;3.50;2.30;;;19.00;99.90;;;;;;4972577;28;20408;-68
2021/08/23 10:01:49;;;;;;;1.93;1.67;;;19.00;99.90;;;;;;4971035;28;20473;-67
2021/08/23 10:04:19;;;;;;;5.03;1.90;;;18.80;99.90;;;;;;4972462;28;20435;-68
2021/08/23 10:06:50;;;;;;;2.90;1.80;;;18.70;99.90;;;;;;4971028;28;20897;-68
2021/08/23 10:09:19;;;;;;;2.30;1.70;;;18.60;99.90;;;;;;4971013;28;20928;-67
2021/08/23 10:11:48;;;;;;;2.30;1.67;;;18.40;99.90;;;;;;4972252;28;20785;-68
2021/08/23 10:14:19;;;;;;;2.20;1.87;;;18.30;99.90;;;;;;4972359;28;20510;-67
2021/08/23 10:16:48;;;;;;;2.53;1.83;;;18.20;99.90;;;;;;4971409;28;20412;-67
2021/08/23 10:19:16;;;;;;;2.80;2.00;;;18.10;99.90;;;;;;4972417;28;20418;-68
2021/08/23 10:21:46;;;;;;;3.60;2.33;;;18.10;99.90;;;;;;4971927;28;20476;-68
2021/08/23 10:24:22;;;;;;;2.40;1.70;;;18.20;99.90;;;;;;4972391;28;20398;-67
2021/08/23 10:26:50;;;;;;;2.00;1.60;;;18.10;99.90;;;;;;4971762;28;20500;-70
2021/08/23 10:29:21;;;;;;;3.10;1.40;;;18.10;99.90;;;;;;4970533;28;20446;-67
2021/08/23 10:31:49;;;;;;;1.60;1.40;;;18.10;99.90;;;;;;4971941;28;20471;-71
2021/08/23 10:34:19;;;;;;;2.27;1.90;;;18.20;99.90;;;;;;4972202;28;20423;-69
2021/08/23 10:36:51;;;;;;;3.73;2.37;;;18.20;99.90;;;;;;4971922;28;20436;-69
2021/08/23 10:39:21;;;;;;;2.50;1.83;;;18.20;99.90;;;;;;4972135;28;20430;-68
2021/08/23 10:41:50;;;;;;;6.60;1.70;;;18.10;99.90;;;;;;4971642;28;20450;-70
2021/08/23 10:44:28;;;;;;;2.53;1.73;;;18.10;99.90;;;;;;4971867;28;20477;-67
2021/08/23 10:47:11;;;;;;;2.37;1.30;;;18.10;99.90;;;;;;4971600;28;20430;-69
2021/08/23 10:49:46;;;;;;;2.13;1.93;;;18.20;99.90;;;;;;4972110;28;20397;-66
2021/08/23 10:52:16;;;;;;;2.90;2.50;;;18.20;99.90;;;;;;4971808;28;20433;-69
2021/08/23 10:54:48;;;;;;;2.20;1.50;;;18.30;99.90;;;;;;4975378;28;20437;-67
2021/08/23 10:57:22;;;;;;;2.90;1.47;;;18.20;99.90;;;;;;4975207;28;20408;-70
2021/08/23 10:59:55;;;;;;;1.93;1.40;;;18.10;99.90;;;;;;4975253;28;20925;-67
2021/08/23 11:02:32;;;;;;;3.23;2.53;;;18.20;99.90;;;;;;4975004;28;20489;-68
2021/08/23 11:05:04;;;;;;;2.73;1.70;;;18.30;99.90;;;;;;4975343;28;20418;-67
2021/08/23 11:07:33;;;;;;;2.67;2.13;;;18.60;99.90;;;;;;4974939;28;20408;-67
2021/08/23 11:10:04;;;;;;;2.20;1.80;;;18.60;99.90;;;;;;4975553;28;20408;-68
2021/08/23 11:12:42;;;;;;;3.13;1.47;;;18.50;99.90;;;;;;4973696;28;20470;-68
2021/08/23 11:15:19;;;;;;;2.70;1.67;;;18.30;99.90;;;;;;4975365;28;20386;-68
2021/08/23 11:17:49;;;;;;;2.23;1.47;;;18.20;99.90;;;;;;4975088;28;20514;-70
2021/08/23 11:20:21;;;;;;;2.33;1.90;;;18.30;99.90;;;;;;4975335;28;20474;-66
2021/08/23 11:22:57;;;;;;;2.23;1.63;;;18.30;99.90;;;;;;4974657;28;20492;-68
2021/08/23 11:25:34;;;;;;;2.10;1.30;;;18.40;99.90;;;;;;4974990;28;20824;-68
2021/08/23 11:28:07;;;;;;;3.60;1.67;;;18.60;99.90;;;;;;4974888;28;20401;-67
2021/08/23 11:30:38;;;;;;;2.37;2.10;;;18.60;98.50;;;;;;4974718;28;20509;-68
2021/08/23 11:33:08;;;;;;;1.60;1.20;;;18.70;96.20;;;;;;4974433;28;20439;-67
2021/08/23 11:35:38;;;;;;;2.33;1.53;;;18.70;95.70;;;;;;4974476;28;20427;-67
2021/08/23 11:38:08;;;;;;;2.43;1.80;;;18.90;94.60;;;;;;4974310;28;20402;-69
2021/08/23 11:40:38;;;;;;;2.00;1.50;;;19.00;92.60;;;;;;4974619;28;20398;-68
2021/08/23 11:43:09;;;;;;;3.07;1.80;;;19.10;92.50;;;;;;4974531;28;20445;-68
2021/08/23 11:45:41;;;;;;;3.73;2.50;;;19.10;91.80;;;;;;4974852;28;20904;-69
2021/08/23 11:48:10;;;;;;;8.37;2.13;;;19.10;90.80;;;;;;4974299;28;20417;-68
2021/08/23 11:50:38;;;;;;;2.90;1.80;;;19.00;91.50;;;;;;4974234;28;20419;-67
2021/08/23 11:53:09;;;;;;;2.20;1.63;;;19.00;91.20;;;;;;4974271;28;21019;-68
2021/08/23 11:55:39;;;;;;;2.40;1.77;;;19.00;90.40;;;;;;4974224;28;20484;-67
2021/08/23 11:58:09;;;;;;;1.47;1.33;;;19.00;90.20;;;;;;4974379;28;20408;-69
2021/08/23 12:00:41;;;;;;;4.40;1.57;;;19.10;90.40;;;;;;4974403;28;20415;-69
2021/08/23 12:03:13;;;;;;;2.70;1.77;;;19.40;86.30;;;;;;4973967;28;20923;-69
2021/08/23 12:05:45;;;;;;;4.00;2.80;;;19.60;83.20;;;;;;4972724;28;20912;-68
2021/08/23 12:08:23;;;;;;;5.70;1.40;;;19.80;80.30;;;;;;4973980;28;20825;-69
2021/08/23 12:10:53;;;;;;;2.00;1.57;;;19.80;76.40;;;;;;4973036;28;20771;-68
2021/08/23 12:13:23;;;;;;;2.90;2.27;;;19.80;77.50;;;;;;5022361;23;20506;-78
2021/08/23 12:15:59;;;;;;;2.63;1.67;;;20.00;70.80;;;;;;5018723;28;20395;-77
2021/08/23 12:18:33;;;;;;;4.07;1.80;;;19.90;67.30;;;;;;5018170;28;20424;-78
2021/08/23 12:21:07;;;;;;;2.57;1.90;;;19.80;67.40;;;;;;5020091;28;20432;-78
2021/08/23 12:23:54;;;;;;;3.97;1.73;;;20.00;65.50;;;;;;5017123;28;20451;-78
2021/08/23 12:26:31;;;;;;;4.13;2.00;;;20.00;62.30;;;;;;5018361;28;20424;-78
2021/08/23 12:29:02;;;;;;;3.27;1.77;;;20.20;61.80;;;;;;5019354;28;20415;-77
2021/08/23 12:31:33;;;;;;;4.83;1.60;;;20.20;59.70;;;;;;5016891;28;20475;-78
2021/08/23 12:37:09;;;;;;;2.10;1.43;;;20.40;53.20;;;;;;5017291;28;20399;-77
2021/08/23 12:39:38;;;;;;;3.10;1.80;;;20.20;53.10;;;;;;5017946;28;20458;-77
2021/08/23 12:42:08;;;;;;;2.43;1.73;;;20.20;53.40;;;;;;5020422;28;20799;-77
2021/08/23 12:44:37;;;;;;;2.60;1.40;;;20.50;53.60;;;;;;5028841;28;20444;-78
2021/08/23 12:47:07;;;;;;;4.33;1.90;;;20.70;50.50;;;;;;5030420;28;20413;-75
2021/08/23 12:49:35;;;;;;;2.73;1.30;;;20.80;47.60;;;;;;5028140;28;20449;-77
2021/08/23 12:52:04;;;;;;;1.93;1.60;;;20.60;45.20;;;;;;5031674;28;20578;-76
2021/08/23 12:54:32;;;;;;;3.40;1.80;;;20.70;44.90;;;;;;5030447;28;20426;-77
2021/08/23 12:57:01;;;;;;;2.23;1.30;;;20.80;45.30;;;;;;5032102;28;20757;-78
2021/08/23 12:59:29;;;;;;;4.13;1.67;;;20.80;43.00;;;;;;5031457;28;20464;-75